Time;durP1;ratioP1;P1;durP2;ratioP2;P2;SDS_P1;SDS_P2;PMS_P1;PMS_P2;Temp;Humidity;BMP_temperature;BMP_pressure;BME280_temperature;BME280_humidity;BME280_pressure;Samples;Min_cycle;Max_cycle;Signal;HPM_P1;HPM_P2
2023/08/18 00:02:12;;;;;;;12.57;11.30;;;;;;;18.64;100.00;76606.53;5052802;28;20021;-72
2023/08/18 00:04:38;;;;;;;12.57;11.27;;;;;;;18.65;100.00;77313.38;5049000;28;20083;-72
2023/08/18 00:07:03;;;;;;;12.57;10.70;;;;;;;18.70;100.00;79086.75;5056327;28;20029;-71
2023/08/18 00:09:28;;;;;;;14.10;11.43;;;;;;;18.63;100.00;82257.66;5053202;28;20492;-71
2023/08/18 00:11:54;;;;;;;14.87;9.90;;;;;;;18.58;100.00;82605.03;5056070;28;20065;-71
2023/08/18 00:14:19;;;;;;;11.87;10.67;;;;;;;18.58;100.00;83311.53;5054711;28;20036;-71
2023/08/18 00:16:45;;;;;;;11.53;10.43;;;;;;;18.54;100.00;80125.44;5056602;28;20024;-71
2023/08/18 00:19:11;;;;;;;14.87;10.67;;;;;;;18.55;100.00;79773.44;5053649;28;20017;-70
2023/08/18 00:21:36;;;;;;;10.68;9.45;;;;;;;18.49;100.00;79765.44;5055661;28;20033;-71
2023/08/18 00:24:02;;;;;;;11.17;9.60;;;;;;;18.48;100.00;79410.19;5058107;28;20554;-70
2023/08/18 00:26:27;;;;;;;11.17;9.73;;;;;;;18.47;100.00;79056.31;5056636;28;20138;-71
2023/08/18 00:28:53;;;;;;;14.23;12.23;;;;;;;18.47;100.00;77996.22;5053621;28;20380;-70
2023/08/18 00:31:18;;;;;;;10.37;9.10;;;;;;;18.47;100.00;77643.75;5057933;28;20104;-70
2023/08/18 00:33:45;;;;;;;11.70;10.27;;;;;;;18.50;100.00;78707.09;5053210;28;20403;-70
2023/08/18 00:36:10;;;;;;;12.27;10.27;;;;;;;18.43;100.00;77637.94;5056492;28;20434;-69
2023/08/18 00:38:36;;;;;;;15.17;10.37;;;;;;;18.43;100.00;77285.56;5052917;28;20013;-70
2023/08/18 00:41:01;;;;;;;13.93;10.13;;;;;;;18.39;100.00;76926.75;5054151;28;20025;-70
2023/08/18 00:43:26;;;;;;;10.40;9.27;;;;;;;18.30;100.00;77268.69;5055070;28;20423;-71
2023/08/18 00:45:53;;;;;;;10.30;9.30;;;;;;;18.32;100.00;77623.63;5051508;28;20499;-69
2023/08/18 00:48:19;;;;;;;10.88;9.38;;;;;;;18.28;100.00;81502.81;5061487;28;20519;-70
2023/08/18 00:50:44;;;;;;;11.00;9.80;;;;;;;18.23;100.00;80790.19;5054906;28;20040;-70
2023/08/18 00:53:10;;;;;;;11.02;9.93;;;;;;;18.22;100.00;81495.31;5057194;28;20041;-69
2023/08/18 00:55:36;;;;;;;10.60;9.30;;;;;;;18.21;100.00;82200.56;5052107;28;20439;-70
2023/08/18 00:58:02;;;;;;;11.98;9.95;;;;;;;18.14;100.00;77953.75;5053756;28;20480;-70
2023/08/18 01:00:28;;;;;;;12.00;9.13;;;;;;;18.13;100.00;78305.38;5051119;28;20025;-69
2023/08/18 01:02:54;;;;;;;10.60;9.13;;;;;;;18.12;100.00;75833.66;5053798;28;20472;-70
2023/08/18 01:05:20;;;;;;;12.27;10.30;;;;;;;18.15;100.00;76543.00;5049330;28;20107;-69
2023/08/18 01:07:46;;;;;;;10.52;9.52;;;;;;;18.04;100.00;77940.06;5059100;28;20273;-70
2023/08/18 01:10:13;;;;;;;16.43;10.10;;;;;;;17.99;100.00;76523.13;5057525;28;20090;-70
2023/08/18 01:12:52;;;;;;;12.45;9.48;;;;;;;17.98;100.00;76169.16;5050892;28;20488;-70
2023/08/18 01:15:27;;;;;;;10.98;9.38;;;;;;;17.95;100.00;75459.47;5056364;28;20028;-69
2023/08/18 01:17:54;;;;;;;11.50;9.45;;;;;;;17.93;100.00;75456.94;5053867;28;20035;-71
2023/08/18 01:20:22;;;;;;;11.18;9.90;;;;;;;17.97;100.00;76167.25;5051077;28;20025;-69
2023/08/18 01:22:56;;;;;;;10.48;9.48;;;;;;;17.95;100.00;75812.06;5051152;28;20033;-70
2023/08/18 01:25:21;;;;;;;10.90;9.73;;;;;;;17.99;100.00;76170.44;5051819;28;20032;-70
2023/08/18 01:27:47;;;;;;;14.13;9.67;;;;;;;17.97;100.00;76873.25;5052850;28;20079;-70
2023/08/18 01:30:13;;;;;;;10.50;9.00;;;;;;;17.98;100.00;76521.84;5051491;28;20028;-70
2023/08/18 01:32:46;;;;;;;10.25;9.20;;;;;;;17.98;100.00;77226.66;5050927;28;20036;-70
2023/08/18 01:35:13;;;;;;;12.60;8.77;;;;;;;17.99;100.00;78286.34;5044733;28;20186;-69
2023/08/18 01:37:43;;;;;;;11.20;9.07;;;;;;;17.98;100.00;79697.34;5062832;28;20032;-71
2023/08/18 01:40:11;;;;;;;10.60;8.80;;;;;;;18.00;100.00;79347.06;5058939;28;20059;-70
2023/08/18 01:42:37;;;;;;;11.77;8.93;;;;;;;18.00;100.00;78994.09;5054152;28;20388;-72
2023/08/18 01:45:03;;;;;;;12.47;9.47;;;;;;;17.96;100.00;79341.72;5061703;28;20032;-70
2023/08/18 01:47:28;;;;;;;10.27;9.07;;;;;;;18.01;100.00;80406.72;5054838;28;20111;-69
2023/08/18 01:49:55;;;;;;;10.47;9.30;;;;;;;17.94;100.00;82516.56;5059486;28;20187;-70
2023/08/18 01:52:20;;;;;;;10.65;9.38;;;;;;;17.99;100.00;82522.81;5058580;28;20021;-70
2023/08/18 01:54:45;;;;;;;10.77;9.77;;;;;;;17.91;100.00;81099.97;5059535;28;20044;-69
2023/08/18 01:57:11;;;;;;;13.00;9.67;;;;;;;17.97;100.00;80401.31;5056481;28;20521;-70
2023/08/18 01:59:36;;;;;;;10.33;9.33;;;;;;;17.97;100.00;78283.72;5057865;28;20476;-70
2023/08/18 02:02:02;;;;;;;11.20;9.70;;;;;;;17.95;100.00;79692.66;5056476;28;20039;-69
2023/08/18 02:04:27;;;;;;;12.50;10.10;;;;;;;17.96;100.00;80399.97;5056709;28;20021;-70
2023/08/18 02:06:52;;;;;;;11.40;10.27;;;;;;;17.89;100.00;78273.25;5060117;28;20912;-70
2023/08/18 02:09:18;;;;;;;10.87;9.17;;;;;;;17.90;100.00;78275.22;5059870;28;20024;-70
2023/08/18 02:11:43;;;;;;;10.90;9.80;;;;;;;17.89;100.00;78273.91;5065470;28;20107;-71
2023/08/18 02:14:08;;;;;;;11.50;9.00;;;;;;;17.85;100.00;74390.03;5058902;28;20039;-70
2023/08/18 02:16:34;;;;;;;11.67;9.27;;;;;;;17.83;100.00;75091.81;5052606;28;20064;-70
2023/08/18 02:18:59;;;;;;;11.10;10.00;;;;;;;17.81;100.00;74737.47;5058426;28;20024;-70
2023/08/18 02:21:25;;;;;;;10.73;9.67;;;;;;;17.80;100.00;75440.50;5062144;28;20041;-70
2023/08/18 02:23:50;;;;;;;13.40;10.80;;;;;;;17.70;100.00;72609.38;5062112;28;20067;-70
2023/08/18 02:26:16;;;;;;;14.67;10.33;;;;;;;17.67;100.00;70141.88;5058106;28;20099;-71
2023/08/18 02:28:41;;;;;;;11.40;10.20;;;;;;;17.64;100.00;67323.28;5054680;28;20025;-70
2023/08/18 02:31:07;;;;;;;12.87;9.80;;;;;;;17.62;100.00;67672.72;5062062;28;20468;-70
2023/08/18 02:33:34;;;;;;;10.82;9.73;;;;;;;17.56;100.00;65556.97;5054374;28;20500;-71
2023/08/18 02:36:00;;;;;;;10.32;9.23;;;;;;;17.52;100.00;63093.09;5058134;28;20035;-70
2023/08/18 02:38:29;;;;;;;12.85;9.50;;;;;;;17.50;100.00;60633.06;5056255;28;20539;-73
2023/08/18 02:40:55;;;;;;;10.77;9.65;;;;;;;17.52;100.00;60985.63;5056454;28;20028;-70
2023/08/18 02:43:22;;;;;;;13.07;9.17;;;;;;;17.53;100.00;60636.13;5048446;28;20129;-70
2023/08/18 02:45:47;;;;;;;9.93;8.93;;;;;;;17.58;100.00;59588.19;5052966;28;20432;-71
2023/08/18 02:48:13;;;;;;;11.43;9.37;;;;;;;17.56;100.00;61691.97;5056246;28;20068;-70
2023/08/18 02:50:39;;;;;;;10.30;8.40;;;;;;;17.51;100.00;60283.06;5052458;28;20504;-72
2023/08/18 02:53:07;;;;;;;8.80;7.90;;;;;;;17.50;100.00;59931.09;5058873;28;20415;-70
2023/08/18 02:55:35;;;;;;;9.63;8.57;;;;;;;17.55;100.00;60988.72;5052016;28;20067;-73
2023/08/18 02:58:02;;;;;;;13.10;8.43;;;;;;;17.55;100.00;62393.28;5056466;28;20555;-72
2023/08/18 03:00:27;;;;;;;9.18;8.27;;;;;;;17.48;100.00;62035.31;5054272;28;20090;-72
2023/08/18 03:02:53;;;;;;;10.30;8.70;;;;;;;17.51;100.00;63091.50;5059488;28;20029;-71
2023/08/18 03:05:19;;;;;;;11.63;8.57;;;;;;;17.50;100.00;64496.16;5058524;28;20503;-70
2023/08/18 03:07:44;;;;;;;8.98;8.07;;;;;;;17.44;100.00;63084.59;5059068;28;20043;-71
2023/08/18 03:10:10;;;;;;;12.23;8.50;;;;;;;17.47;100.00;64492.91;5069183;28;20068;-70
2023/08/18 03:12:35;;;;;;;10.93;8.30;;;;;;;17.48;100.00;63790.81;5056242;28;20547;-71
2023/08/18 03:15:01;;;;;;;10.07;9.07;;;;;;;17.49;100.00;64143.19;5054438;28;20029;-70
2023/08/18 03:17:26;;;;;;;10.97;8.83;;;;;;;17.52;100.00;65904.06;5061137;28;20471;-71
2023/08/18 03:19:52;;;;;;;11.43;8.87;;;;;;;17.49;100.00;64845.88;5054294;28;20431;-71
2023/08/18 03:22:17;;;;;;;9.73;8.47;;;;;;;17.46;100.00;63437.41;5061950;28;20025;-70
2023/08/18 03:24:43;;;;;;;10.87;9.77;;;;;;;17.37;100.00;60970.22;5063498;28;20085;-71
2023/08/18 03:27:08;;;;;;;10.67;9.57;;;;;;;17.34;100.00;57459.63;5050699;28;20043;-71
2023/08/18 03:29:34;;;;;;;9.90;8.83;;;;;;;17.38;100.00;57112.34;5056845;28;20021;-72
2023/08/18 03:31:59;;;;;;;12.53;9.50;;;;;;;17.38;100.00;58164.94;5053093;28;20029;-71
2023/08/18 03:34:25;;;;;;;11.37;10.20;;;;;;;17.38;100.00;57463.53;5051318;28;20144;-72
2023/08/18 03:36:50;;;;;;;13.07;11.43;;;;;;;17.35;100.00;54305.97;5052105;28;20507;-71
2023/08/18 03:39:16;;;;;;;13.90;11.23;;;;;;;17.36;100.00;55007.72;5055942;28;20277;-71
2023/08/18 03:41:41;;;;;;;12.40;10.43;;;;;;;17.34;100.00;55356.28;5047137;28;20433;-71
2023/08/18 03:44:06;;;;;;;14.13;10.93;;;;;;;17.30;100.00;52549.59;5055268;28;20044;-70
2023/08/18 03:46:33;;;;;;;15.53;11.63;;;;;;;17.31;100.00;51149.94;5058498;28;20028;-71
2023/08/18 03:48:59;;;;;;;12.80;11.50;;;;;;;17.30;100.00;49749.09;5059584;28;20036;-71
2023/08/18 03:51:25;;;;;;;13.30;11.50;;;;;;;17.29;100.00;49398.72;5051351;28;20074;-71
2023/08/18 03:53:52;;;;;;;12.70;11.10;;;;;;;17.33;100.00;48702.28;5057298;28;20024;-71
2023/08/18 03:56:17;;;;;;;17.13;12.23;;;;;;;17.32;100.00;48351.63;5057794;28;20488;-71
2023/08/18 03:58:43;;;;;;;15.43;11.83;;;;;;;17.36;100.00;48704.78;5055626;28;20645;-73
2023/08/18 04:01:09;;;;;;;23.75;12.02;;;;;;;17.36;100.00;49054.25;5054892;28;20020;-72
2023/08/18 04:03:36;;;;;;;15.10;11.93;;;;;;;17.34;100.00;49402.50;5053245;28;20021;-73
2023/08/18 04:06:05;;;;;;;15.68;10.98;;;;;;;17.40;100.00;51157.75;5052863;28;20029;-73
2023/08/18 04:08:39;;;;;;;14.98;11.73;;;;;;;17.40;100.00;51508.31;5062138;28;20024;-72
2023/08/18 04:11:05;;;;;;;13.48;12.07;;;;;;;17.32;100.00;52201.19;5052495;28;20028;-73
2023/08/18 04:13:30;;;;;;;17.30;11.97;;;;;;;17.35;100.00;51853.66;5056185;28;20033;-73
2023/08/18 04:15:57;;;;;;;15.47;11.93;;;;;;;17.34;100.00;50802.91;5055267;28;20484;-72
2023/08/18 04:18:23;;;;;;;15.75;12.07;;;;;;;17.34;100.00;50802.91;5058213;28;20017;-72
2023/08/18 04:20:48;;;;;;;17.00;12.33;;;;;;;17.32;100.00;51150.81;5054743;28;20040;-73
2023/08/18 04:23:13;;;;;;;12.87;11.03;;;;;;;17.30;100.00;50099.03;5058739;28;20043;-72
2023/08/18 04:25:42;;;;;;;16.00;11.90;;;;;;;17.30;100.00;48699.81;5057197;28;20044;-73
2023/08/18 04:28:08;;;;;;;14.60;11.88;;;;;;;17.33;100.00;48702.28;5055251;28;20119;-73
2023/08/18 04:30:33;;;;;;;12.33;11.13;;;;;;;17.39;100.00;50456.72;5048852;28;20162;-72
2023/08/18 04:32:59;;;;;;;16.23;12.07;;;;;;;17.28;100.00;48697.75;5058866;28;20036;-71
2023/08/18 04:35:24;;;;;;;13.30;11.57;;;;;;;17.35;100.00;46954.94;5059398;28;20565;-71
2023/08/18 04:37:50;;;;;;;14.60;12.10;;;;;;;17.40;100.00;48007.91;5054747;28;20939;-72
2023/08/18 04:40:15;;;;;;;18.43;11.77;;;;;;;17.46;100.00;50112.63;5056095;28;20361;-72
2023/08/18 04:42:41;;;;;;;16.20;12.47;;;;;;;17.40;100.00;52208.28;5056566;28;20021;-73
2023/08/18 04:45:08;;;;;;;13.88;11.90;;;;;;;17.41;100.00;51858.94;5057877;28;20028;-72
2023/08/18 04:47:33;;;;;;;15.43;11.48;;;;;;;17.40;100.00;51157.75;5052491;28;20123;-72
2023/08/18 04:50:00;;;;;;;17.73;11.03;;;;;;;17.39;100.00;50106.69;5056191;28;20116;-72
2023/08/18 04:52:27;;;;;;;17.65;11.50;;;;;;;17.42;100.00;50809.38;5051969;28;20021;-71
2023/08/18 04:54:52;;;;;;;14.10;11.10;;;;;;;17.47;100.00;52214.44;5056174;28;20036;-71
2023/08/18 04:57:18;;;;;;;13.37;11.17;;;;;;;17.42;100.00;53961.53;5058203;28;20082;-72
2023/08/18 04:59:43;;;;;;;13.27;10.57;;;;;;;17.41;100.00;52909.66;5046930;28;20027;-71
2023/08/18 05:02:08;;;;;;;12.57;10.73;;;;;;;17.43;100.00;54663.28;5047393;28;20025;-71
2023/08/18 05:04:34;;;;;;;12.87;11.30;;;;;;;17.43;100.00;55364.25;5053620;28;20025;-72
2023/08/18 05:06:59;;;;;;;14.27;10.40;;;;;;;17.46;100.00;56418.78;5052124;28;20193;-72
2023/08/18 05:09:25;;;;;;;14.10;11.23;;;;;;;17.42;100.00;56064.38;5052014;28;20432;-73
2023/08/18 05:11:50;;;;;;;13.03;11.07;;;;;;;17.46;100.00;56068.19;5057217;28;20459;-73
2023/08/18 05:14:16;;;;;;;13.30;11.10;;;;;;;17.46;100.00;55718.06;5055154;28;20035;-72
2023/08/18 05:16:41;;;;;;;11.53;10.33;;;;;;;17.44;100.00;55365.19;5053543;28;20035;-72
2023/08/18 05:19:07;;;;;;;15.37;10.40;;;;;;;17.46;100.00;56418.78;5044236;28;20029;-72
2023/08/18 05:21:32;;;;;;;14.03;9.50;;;;;;;17.39;100.00;56061.56;5058076;28;20036;-73
2023/08/18 05:23:58;;;;;;;15.53;10.27;;;;;;;17.38;100.00;54658.66;5051039;28;20548;-73
2023/08/18 05:26:23;;;;;;;11.70;10.27;;;;;;;17.40;100.00;57114.31;5057284;28;20025;-73
2023/08/18 05:28:49;;;;;;;14.70;9.87;;;;;;;17.49;100.00;56071.00;5048311;28;20059;-73
2023/08/18 05:31:15;;;;;;;12.80;9.83;;;;;;;17.43;100.00;59923.50;5049144;28;20769;-73
2023/08/18 05:33:40;;;;;;;10.48;9.48;;;;;;;17.49;100.00;59227.72;5049330;28;20520;-73
2023/08/18 05:36:07;;;;;;;11.23;9.33;;;;;;;17.48;100.00;59577.63;5052237;28;20037;-73
2023/08/18 05:38:32;;;;;;;9.63;8.60;;;;;;;17.47;100.00;60980.50;5048683;28;20104;-72
2023/08/18 05:41:11;;;;;;;12.63;9.17;;;;;;;17.57;100.00;62044.69;5044130;28;20368;-72
2023/08/18 05:43:37;;;;;;;11.27;9.30;;;;;;;17.55;100.00;64501.03;5045757;28;20029;-71
2023/08/18 05:46:03;;;;;;;13.38;9.05;;;;;;;17.49;100.00;65900.16;5046411;28;20037;-72
2023/08/18 05:48:30;;;;;;;10.65;9.00;;;;;;;17.45;100.00;63787.59;5047786;28;20036;-72
2023/08/18 05:50:55;;;;;;;10.00;8.82;;;;;;;17.42;100.00;61326.38;5058982;28;20099;-72
2023/08/18 05:53:20;;;;;;;16.90;9.93;;;;;;;17.52;100.00;62390.66;5054239;28;20056;-73
2023/08/18 05:55:46;;;;;;;10.83;8.53;;;;;;;17.55;100.00;65204.41;5053778;28;20064;-72
2023/08/18 05:58:12;;;;;;;11.10;9.43;;;;;;;17.58;100.00;66965.44;5062738;28;20020;-73
2023/08/18 06:00:38;;;;;;;12.68;9.45;;;;;;;17.61;100.00;67319.91;5057733;28;20032;-72
2023/08/18 06:03:03;;;;;;;19.13;9.73;;;;;;;17.60;100.00;67318.78;5060940;28;20025;-72
2023/08/18 06:05:29;;;;;;;11.90;9.13;;;;;;;17.66;100.00;68029.56;5056913;28;20103;-72
2023/08/18 06:07:55;;;;;;;15.67;9.80;;;;;;;17.74;100.00;71205.66;5057604;28;20128;-72
2023/08/18 06:10:21;;;;;;;10.23;8.57;;;;;;;17.72;100.00;74021.47;5054086;28;20515;-73
2023/08/18 06:12:47;;;;;;;14.60;8.97;;;;;;;17.72;100.00;74725.56;5056882;28;20067;-72
2023/08/18 06:15:13;;;;;;;14.55;9.60;;;;;;;17.76;100.00;74026.44;5051421;28;20476;-73
2023/08/18 06:17:40;;;;;;;13.97;9.50;;;;;;;17.82;100.00;74033.28;5060179;28;20021;-71
2023/08/18 06:20:06;;;;;;;13.10;9.90;;;;;;;17.83;100.00;76854.59;5059338;28;20020;-72
2023/08/18 06:22:32;;;;;;;13.13;10.20;;;;;;;17.85;100.00;77209.81;5054440;28;20383;-73
2023/08/18 06:24:57;;;;;;;16.87;11.60;;;;;;;17.78;100.00;78965.00;5053846;28;20029;-73
2023/08/18 06:27:22;;;;;;;16.53;10.73;;;;;;;17.89;100.00;75451.88;5058498;28;20035;-73
2023/08/18 06:29:48;;;;;;;18.40;11.50;;;;;;;17.97;100.00;77931.56;5056099;28;20053;-72
2023/08/18 06:32:13;;;;;;;13.27;11.33;;;;;;;18.00;100.00;83937.34;5058562;28;20029;-73
2023/08/18 06:34:38;;;;;;;15.43;10.97;;;;;;;17.98;100.00;85701.66;5051882;28;20079;-71
2023/08/18 06:37:04;;;;;;;13.97;11.27;;;;;;;17.89;100.00;84981.91;5051711;28;20449;-70
2023/08/18 06:39:29;;;;;;;15.60;10.73;;;;;;;17.92;100.00;81101.34;5055296;28;20025;-70
2023/08/18 06:41:55;;;;;;;12.57;11.27;;;;;;;17.97;100.00;83933.13;5060004;28;20025;-70
2023/08/18 06:44:20;;;;;;;15.10;10.77;;;;;;;17.92;100.00;82867.03;5062946;28;20124;-70
2023/08/18 06:46:46;;;;;;;15.50;10.87;;;;;;;17.98;100.00;80049.66;5056261;28;20033;-70
2023/08/18 06:49:12;;;;;;;15.65;11.95;;;;;;;17.99;100.00;80757.06;5089702;28;20105;-71
2023/08/18 06:51:37;;;;;;;16.20;11.60;;;;;;;18.01;100.00;79347.69;5052647;28;20060;-71
2023/08/18 06:54:02;;;;;;;16.83;11.27;;;;;;;18.10;100.00;80772.59;5050095;28;20127;-71
2023/08/18 06:56:28;;;;;;;14.17;10.87;;;;;;;18.05;100.00;80765.19;5054210;28;20028;-70
2023/08/18 06:58:53;;;;;;;14.17;11.50;;;;;;;18.05;100.00;82178.56;5060326;28;20027;-70
2023/08/18 07:01:18;;;;;;;19.10;12.70;;;;;;;18.15;100.00;80778.72;5053504;28;20045;-70
2023/08/18 07:03:44;;;;;;;20.83;12.83;;;;;;;18.32;100.00;82921.84;5045101;28;20060;-70
2023/08/18 07:06:09;;;;;;;17.37;12.23;;;;;;;18.44;100.00;86475.22;5052817;28;20238;-70
2023/08/18 07:08:35;;;;;;;28.10;10.93;;;;;;;18.56;100.00;92868.59;5049484;28;20036;-71
2023/08/18 07:11:01;;;;;;;14.97;11.60;;;;;;;18.63;100.00;98555.47;5054783;28;20462;-70
2023/08/18 07:13:26;;;;;;;21.87;13.37;;;;;;;18.60;100.00;103167.09;5059487;28;20029;-71
2023/08/18 07:15:51;;;;;;;16.10;11.77;;;;;;;18.58;100.00;103519.88;5057233;28;20039;-70
2023/08/18 07:18:17;;;;;;;14.93;11.67;;;;;;;18.62;100.00;103170.56;5052189;28;20115;-70
2023/08/18 07:20:45;;;;;;;20.90;13.68;;;;;;;18.65;100.00;108155.47;5051797;28;20048;-72
2023/08/18 07:23:10;;;;;;;22.65;13.07;;;;;;;18.73;100.00;109948.88;5046040;28;20044;-71
2023/08/18 07:25:39;;;;;;;17.07;12.73;;;;;;;19.03;100.00;116064.31;5044573;28;20397;-71
2023/08/18 07:28:05;;;;;;;18.30;13.00;;;;;;;19.10;100.00;120362.72;5053326;28;20116;-71
2023/08/18 07:30:31;;;;;;;22.27;12.65;;;;;;;19.16;100.00;123590.94;5059933;28;20041;-71
2023/08/18 07:32:56;;;;;;;19.10;13.15;;;;;;;19.23;100.00;125751.22;5051675;28;20052;-70
2023/08/18 07:35:23;;;;;;;19.33;12.80;;;;;;;19.25;100.00;137577.66;5048778;28;20065;-70
2023/08/18 07:37:49;;;;;;;21.23;13.18;;;;;;;19.47;100.00;134399.31;5054629;28;20087;-69
2023/08/18 07:40:14;;;;;;;18.67;12.13;;;;;;;19.56;100.00;146757.50;5041091;28;20024;-70
2023/08/18 07:42:40;;;;;;;21.40;13.47;;;;;;;19.44;100.00;154076.91;5055325;28;20033;-71
2023/08/18 07:45:06;;;;;;;22.98;12.85;;;;;;;19.73;100.00;154800.50;5048455;28;20116;-70
2023/08/18 07:47:34;;;;;;;16.73;12.77;;;;;;;19.80;100.00;156414.84;5064516;28;20112;-70
2023/08/18 07:49:59;;;;;;;20.63;13.50;;;;;;;19.44;100.00;156320.94;5049175;28;20094;-72
2023/08/18 07:52:24;;;;;;;17.63;12.33;;;;;;;19.29;100.00;156281.84;5053690;28;20029;-72
2023/08/18 07:54:50;;;;;;;25.10;12.80;;;;;;;19.15;100.00;142579.56;5047007;28;20029;-71
2023/08/18 07:57:16;;;;;;;18.80;12.47;;;;;;;19.24;100.00;139368.34;5050127;28;20101;-71
2023/08/18 07:59:41;;;;;;;21.23;13.80;;;;;;;19.16;100.00;138992.03;5052543;28;20059;-71
2023/08/18 08:02:07;;;;;;;18.23;13.40;;;;;;;19.21;100.00;139720.28;5051595;28;20645;-71
2023/08/18 08:04:32;;;;;;;25.77;13.77;;;;;;;19.30;100.00;140818.34;5048885;28;20104;-71
2023/08/18 08:06:58;;;;;;;18.33;13.77;;;;;;;19.39;100.00;144074.09;5055957;28;20020;-71
2023/08/18 08:09:24;;;;;;;19.13;13.20;;;;;;;19.85;100.00;143105.66;5060567;28;20028;-71
2023/08/18 08:11:50;;;;;;;17.80;13.13;;;;;;;19.84;100.00;156425.28;5046505;28;20178;-71
2023/08/18 08:14:16;;;;;;;;;;;;;;;20.22;100.00;156525.72;5052218;28;20075;-71
2023/08/18 08:16:41;;;;;;;23.23;13.85;;;;;;;20.51;100.00;156600.06;5054595;28;20351;-72
2023/08/18 08:19:09;;;;;;;17.27;12.03;;;;;;;20.75;100.00;156664.00;5050811;28;20025;-71
2023/08/18 08:21:35;;;;;;;17.90;12.38;;;;;;;20.79;100.00;156673.13;5054881;28;20036;-71
2023/08/18 08:24:00;;;;;;;25.27;13.57;;;;;;;20.58;100.00;156619.66;5061370;28;20029;-72
2023/08/18 08:26:25;;;;;;;23.93;12.87;;;;;;;20.61;100.00;156626.16;5053985;28;20051;-71
2023/08/18 08:28:51;;;;;;;20.43;14.50;;;;;;;20.76;100.00;156666.59;5057833;28;20063;-71
2023/08/18 08:31:16;;;;;;;23.40;14.03;;;;;;;21.19;100.00;156777.63;5051921;28;20020;-71
2023/08/18 08:33:41;;;;;;;20.67;13.60;;;;;;;21.20;100.00;156781.53;5051002;28;20035;-71
2023/08/18 08:36:07;;;;;;;22.87;13.47;;;;;;;21.39;100.00;156829.84;5048239;28;20444;-71
2023/08/18 08:38:32;;;;;;;22.23;13.90;;;;;;;21.24;100.00;156790.66;5059820;28;20354;-71
2023/08/18 08:41:01;;;;;;;19.67;12.80;;;;;;;21.20;100.00;156780.22;5048377;28;20150;-72
2023/08/18 08:43:26;;;;;;;21.45;13.60;;;;;;;20.81;100.00;156679.66;5047723;28;20025;-72
2023/08/18 08:45:52;;;;;;;20.83;14.23;;;;;;;20.87;100.00;156694.03;5053204;28;20086;-72
2023/08/18 08:48:20;;;;;;;33.75;14.90;;;;;;;20.96;100.00;156717.59;5047378;28;20375;-72
2023/08/18 08:50:50;;;;;;;29.23;14.77;;;;;;;21.11;100.00;156758.03;5052529;28;20517;-72
2023/08/18 08:53:21;;;;;;;35.45;14.50;;;;;;;21.32;100.00;156812.84;5054097;28;20024;-72
2023/08/18 08:55:48;;;;;;;27.77;14.68;;;;;;;21.45;100.00;156845.50;5058082;28;20024;-72
2023/08/18 08:58:13;;;;;;;31.55;15.13;;;;;;;21.44;100.00;156842.91;5062653;28;20028;-72
2023/08/18 09:00:39;;;;;;;30.08;15.20;;;;;;;21.39;100.00;156829.84;5047287;28;20528;-72
2023/08/18 09:03:06;;;;;;;36.97;15.47;;;;;;;21.58;100.00;156879.44;5053142;28;20539;-72
2023/08/18 09:05:32;;;;;;;25.15;15.75;;;;;;;21.54;100.00;156870.28;5048941;28;20025;-72
2023/08/18 09:07:58;;;;;;;34.58;16.02;;;;;;;21.35;100.00;156819.38;5051655;28;20035;-71
2023/08/18 09:10:25;;;;;;;26.87;16.73;;;;;;;21.36;100.00;156821.97;5053972;28;20392;-70
2023/08/18 09:12:51;;;;;;;29.42;16.83;;;;;;;21.57;100.00;156878.16;5043440;28;20319;-71
2023/08/18 09:15:16;;;;;;;29.07;17.87;;;;;;;21.31;100.00;156810.25;5048204;28;20025;-71
2023/08/18 09:17:44;;;;;;;41.47;17.70;;;;;;;21.59;100.00;156883.34;5058466;28;20185;-71
2023/08/18 09:20:13;;;;;;;33.97;18.55;;;;;;;21.68;100.00;156906.91;5055078;28;20021;-71
2023/08/18 09:22:39;;;;;;;28.73;16.80;;;;;;;21.98;100.00;156985.25;5045870;28;20115;-71
2023/08/18 09:25:07;;;;;;;30.07;18.13;;;;;;;21.99;100.00;156987.84;5047034;28;20479;-71
2023/08/18 09:27:33;;;;;;;37.47;17.85;;;;;;;22.25;100.00;157054.50;5048186;28;20065;-71
2023/08/18 09:29:58;;;;;;;36.75;19.08;;;;;;;22.33;100.00;157075.38;5046995;28;20075;-71
2023/08/18 09:32:24;;;;;;;37.10;17.60;;;;;;;22.61;100.00;157149.91;5051115;28;20037;-71
2023/08/18 09:34:50;;;;;;;29.37;16.63;;;;;;;22.71;100.00;157174.72;5051026;28;20037;-70
2023/08/18 09:37:16;;;;;;;28.73;15.98;;;;;;;22.99;100.00;157249.22;5049167;28;20028;-71
2023/08/18 09:39:42;;;;;;;30.98;17.48;;;;;;;22.96;100.00;157240.06;5051191;28;20024;-71
2023/08/18 09:42:08;;;;;;;25.70;16.90;;;;;;;22.95;100.00;157237.47;5055193;28;20024;-70
2023/08/18 09:44:34;;;;;;;25.58;16.90;;;;;;;23.08;100.00;157271.44;5055380;28;20028;-71
2023/08/18 09:47:04;;;;;;;24.13;15.13;;;;;;;23.25;100.00;157317.25;5050135;28;20025;-71
2023/08/18 09:49:33;;;;;;;23.35;15.98;;;;;;;22.97;100.00;157242.69;5053448;28;20045;-71
2023/08/18 09:52:06;;;;;;;22.98;15.57;;;;;;;23.00;100.00;157250.53;5052242;28;20036;-72
2023/08/18 09:54:39;;;;;;;23.08;16.35;;;;;;;22.94;100.00;157234.88;5058852;28;20035;-73
2023/08/18 09:57:10;;;;;;;23.60;15.52;;;;;;;22.93;100.00;157233.53;5056537;28;20309;-73
2023/08/18 09:59:42;;;;;;;21.90;15.98;;;;;;;22.86;100.00;157215.25;5051934;28;20091;-72
2023/08/18 10:02:13;;;;;;;27.38;17.10;;;;;;;22.77;100.00;157191.72;5051742;28;20480;-73
2023/08/18 10:04:39;;;;;;;23.92;15.93;;;;;;;23.03;100.00;157258.34;5053583;28;20024;-73
2023/08/18 10:07:06;;;;;;;24.67;15.95;;;;;;;22.96;100.00;157241.41;5057715;28;20353;-73
2023/08/18 10:09:33;;;;;;;24.27;16.52;;;;;;;23.01;100.00;157254.47;5052150;28;20025;-73
2023/08/18 10:12:01;;;;;;;21.88;15.48;;;;;;;23.11;100.00;157279.28;5047229;28;20531;-73
2023/08/18 10:14:27;;;;;;;24.77;17.08;;;;;;;23.41;100.00;157357.75;5057101;28;20553;-73
2023/08/18 10:16:53;;;;;;;20.83;15.10;;;;;;;23.64;100.00;157419.19;5052596;28;20033;-72
2023/08/18 10:19:37;;;;;;;;;;;;;;;23.55;100.00;157395.69;5055781;28;20373;-72
2023/08/18 10:22:03;;;;;;;21.48;16.45;;;;;;;23.42;100.00;157361.69;5049985;28;19924;-72
2023/08/18 10:24:29;;;;;;;24.48;17.60;;;;;;;23.15;100.00;157289.75;5043529;28;20033;-72
2023/08/18 10:26:54;;;;;;;28.23;16.73;;;;;;;23.21;100.00;157305.50;5055441;28;20036;-73
2023/08/18 10:29:20;;;;;;;27.87;15.43;;;;;;;23.35;100.00;157343.38;5056047;28;20028;-73
2023/08/18 10:31:48;;;;;;;24.37;15.83;;;;;;;23.62;100.00;157414.00;5057879;28;20033;-73
2023/08/18 10:34:21;;;;;;;22.80;16.98;;;;;;;23.56;100.00;157398.31;5050308;28;20036;-73
2023/08/18 10:36:47;;;;;;;21.63;15.60;;;;;;;23.57;100.00;157399.59;5048389;28;20032;-73
2023/08/18 10:39:32;;;;;;;29.40;16.40;;;;;;;23.47;100.00;157373.47;5055075;28;20025;-73
2023/08/18 10:42:15;;;;;;;25.83;15.73;;;;;;;23.58;100.00;157403.53;5054041;28;20037;-73
2023/08/18 10:45:05;;;;;;;29.27;17.45;;;;;;;23.66;100.00;157423.13;5054166;28;20126;-73
2023/08/18 10:47:34;;;;;;;23.38;17.65;;;;;;;23.44;100.00;157365.63;5054207;28;20550;-73
2023/08/18 10:50:04;;;;;;;22.90;16.63;;;;;;;23.72;100.00;157438.81;5046244;28;20401;-73
2023/08/18 10:52:30;;;;;;;22.38;16.73;;;;;;;23.61;100.00;157410.06;5052233;28;20020;-72
2023/08/18 10:54:56;;;;;;;;;;;;;;;23.50;100.00;157382.63;5059471;28;20028;-73
2023/08/18 10:57:21;;;;;;;20.27;17.38;;;;;;;23.52;100.00;157386.56;5054507;28;20008;-73
2023/08/18 10:59:47;;;;;;;24.23;16.77;;;;;;;23.41;100.00;157359.06;5057808;28;20021;-74
2023/08/18 11:02:13;;;;;;;21.87;16.87;;;;;;;23.71;100.00;157436.22;5053432;28;20028;-70
2023/08/18 11:04:38;;;;;;;18.90;16.88;;;;;;;23.47;100.00;157374.75;5052654;28;20435;-71
2023/08/18 11:07:04;;;;;;;29.17;18.63;;;;;;;23.41;100.00;157357.75;5049589;28;20037;-70